KIMT/IMT METAR and TAF weather

Enter ICAO airport designator
Station Type Date Time Source
KIMT METAR 2022/09/28 17:54 UTC NOAA

KIMT 281754Z AUTO 01006KT 10SM CLR 11/01 A3050 RMK AO2 SLP340 T01060006 10106 21011 50000


Station Type Date Time Source
KIMT Decoded METAR 2022/09/28 17:54 UTC NOAA

IRON MOUNTAIN FORD AIRPORT, MI, United States (KIMT) 45-49N 88-07W 349M
Sep 28, 2022 - 01:54 PM EDT / 2022.09.28 1754 UTC
Wind: from the N (010 degrees) at 7 MPH (6 KT):0
Visibility: 10 mile(s):0
Sky conditions: clear
Temperature: 51.1 F (10.6 C)
Dew Point: 33.1 F (0.6 C)
Relative Humidity: 49%
Pressure (altimeter): 30.5 in. Hg (1032 hPa)
Pressure tendency: 0.00 inches (0.0 hPa) higher than three hours ago
ob: KIMT 281754Z AUTO 01006KT 10SM CLR 11/01 A3050 RMK AO2 SLP340 T01060006 10106 21011 50000
cycle: 18

Station Type Date Time Source
KIMT TAF UTC NOAA

Error!

Example: see airport list